Time;durP1;ratioP1;P1;durP2;ratioP2;P2;SDS_P1;SDS_P2;PMS_P1;PMS_P2;Temp;Humidity;BMP_temperature;BMP_pressure;BME280_temperature;BME280_humidity;BME280_pressure;Samples;Min_cycle;Max_cycle;Signal;HPM_P1;HPM_P2
2023/12/03 00:00:12;;;;;;;46.55;29.88;;;2.20;47.70;;;;;;5114192;28;20410;-73
2023/12/03 00:02:38;;;;;;;47.75;29.30;;;2.20;47.90;;;;;;5114026;28;20758;-72
2023/12/03 00:05:05;;;;;;;45.85;29.35;;;2.20;47.70;;;;;;5115134;28;20380;-72
2023/12/03 00:07:32;;;;;;;46.15;29.60;;;2.20;47.20;;;;;;5115567;28;20395;-73
2023/12/03 00:09:57;;;;;;;48.15;29.80;;;2.40;46.90;;;;;;5116491;28;20707;-73
2023/12/03 00:12:23;;;;;;;48.47;30.00;;;2.30;47.00;;;;;;5116035;28;20483;-75
2023/12/03 00:14:49;;;;;;;49.40;30.57;;;2.30;47.30;;;;;;5115949;28;20391;-73
2023/12/03 00:17:15;;;;;;;47.47;30.30;;;2.30;47.70;;;;;;5115099;28;20741;-73
2023/12/03 00:19:40;;;;;;;45.70;30.60;;;2.20;47.90;;;;;;5115101;28;20440;-73
2023/12/03 00:22:07;;;;;;;48.47;29.92;;;2.20;48.20;;;;;;5115184;28;20414;-73
2023/12/03 00:24:33;;;;;;;50.08;31.40;;;2.10;49.10;;;;;;5116019;28;20388;-73
2023/12/03 00:26:58;;;;;;;51.55;30.85;;;2.20;49.40;;;;;;5113746;28;20384;-74
2023/12/03 00:29:24;;;;;;;50.97;32.13;;;2.30;49.00;;;;;;5113506;28;20445;-74
2023/12/03 00:31:50;;;;;;;50.42;31.10;;;2.30;48.90;;;;;;5113363;28;20373;-72
2023/12/03 00:34:15;;;;;;;53.25;30.92;;;2.40;49.30;;;;;;5113751;28;20394;-73
2023/12/03 00:36:41;;;;;;;52.47;31.92;;;2.40;48.80;;;;;;5113176;28;20405;-72
2023/12/03 00:39:06;;;;;;;55.03;32.77;;;2.40;50.00;;;;;;5113044;28;20432;-74
2023/12/03 00:41:32;;;;;;;50.27;30.90;;;2.40;49.70;;;;;;5112836;28;20392;-72
2023/12/03 00:43:57;;;;;;;51.93;31.67;;;2.50;49.60;;;;;;5113466;28;20375;-72
2023/12/03 00:46:23;;;;;;;53.83;33.10;;;2.50;49.40;;;;;;5113590;28;20368;-73
2023/12/03 00:48:49;;;;;;;56.77;33.37;;;2.40;50.00;;;;;;5113408;28;20384;-73
2023/12/03 00:51:15;;;;;;;54.03;32.73;;;2.40;50.90;;;;;;5113968;28;20502;-71
2023/12/03 00:53:41;;;;;;;52.15;32.72;;;2.50;50.80;;;;;;5113787;28;20380;-72
2023/12/03 00:56:08;;;;;;;51.53;32.60;;;2.60;50.10;;;;;;5113755;28;20809;-72
2023/12/03 00:58:33;;;;;;;55.90;34.20;;;2.60;50.00;;;;;;5112857;28;20391;-72
2023/12/03 01:00:59;;;;;;;51.67;33.03;;;2.70;50.20;;;;;;5112402;28;20491;-72
2023/12/03 01:03:25;;;;;;;49.80;31.48;;;2.60;50.00;;;;;;5112932;28;20411;-72
2023/12/03 01:05:50;;;;;;;54.08;33.88;;;2.70;49.70;;;;;;5112979;28;20368;-73
2023/12/03 01:08:16;;;;;;;56.33;34.37;;;2.60;50.30;;;;;;5112784;28;20761;-73
2023/12/03 01:10:41;;;;;;;58.50;35.07;;;2.60;50.80;;;;;;5111529;28;20416;-76
2023/12/03 01:13:07;;;;;;;56.03;34.17;;;2.60;51.20;;;;;;5112441;28;20506;-73
2023/12/03 01:15:33;;;;;;;56.95;34.45;;;2.60;51.30;;;;;;5111034;28;20420;-73
2023/12/03 01:17:58;;;;;;;57.33;34.30;;;2.60;52.10;;;;;;5097084;28;20401;-74
2023/12/03 01:20:24;;;;;;;57.67;34.80;;;2.60;52.40;;;;;;5111715;28;20414;-72
2023/12/03 01:22:49;;;;;;;55.40;33.15;;;2.60;52.30;;;;;;5112077;28;20743;-72
2023/12/03 01:25:15;;;;;;;58.42;34.03;;;2.60;52.70;;;;;;5112272;28;20376;-73
2023/12/03 01:27:40;;;;;;;58.97;35.03;;;2.60;53.30;;;;;;5112145;28;20889;-73
2023/12/03 01:30:06;;;;;;;58.30;33.93;;;2.60;53.80;;;;;;5112782;28;20372;-72
2023/12/03 01:32:32;;;;;;;59.70;34.20;;;2.60;54.50;;;;;;5112000;28;20414;-72
2023/12/03 01:34:57;;;;;;;60.10;34.40;;;2.70;53.60;;;;;;5110884;28;20513;-72
2023/12/03 01:37:23;;;;;;;57.15;34.00;;;2.70;54.00;;;;;;5112377;28;20391;-72
2023/12/03 01:39:48;;;;;;;59.05;34.92;;;2.80;53.80;;;;;;5112767;28;20388;-73
2023/12/03 01:42:14;;;;;;;67.50;35.50;;;2.70;54.20;;;;;;5113610;28;20396;-73
2023/12/03 01:44:39;;;;;;;60.42;36.00;;;2.80;54.30;;;;;;5112851;28;20380;-73
2023/12/03 01:47:05;;;;;;;59.30;34.97;;;2.70;55.10;;;;;;5113552;28;20795;-74
2023/12/03 01:49:31;;;;;;;57.88;33.15;;;2.70;55.40;;;;;;5115810;28;20518;-74
2023/12/03 01:51:58;;;;;;;59.08;33.00;;;2.90;53.90;;;;;;5115620;28;20388;-74
2023/12/03 01:54:29;;;;;;;55.70;33.53;;;2.80;55.30;;;;;;5113526;28;20716;-73
2023/12/03 01:56:55;;;;;;;56.95;34.55;;;2.90;54.90;;;;;;5111506;28;20428;-73
2023/12/03 01:59:23;;;;;;;57.95;33.75;;;2.90;53.40;;;;;;5112367;28;20412;-74
2023/12/03 02:01:49;;;;;;;54.05;32.80;;;2.90;53.20;;;;;;5111281;28;20962;-73
2023/12/03 02:04:15;;;;;;;56.92;34.10;;;2.90;53.20;;;;;;5111613;28;20738;-72
2023/12/03 02:06:40;;;;;;;58.30;34.20;;;2.90;52.50;;;;;;5111465;28;20368;-73
2023/12/03 02:09:07;;;;;;;55.33;33.22;;;2.90;52.10;;;;;;5111482;28;20373;-73
2023/12/03 02:11:33;;;;;;;52.95;31.98;;;3.00;51.80;;;;;;5111191;28;20384;-72
2023/12/03 02:14:00;;;;;;;55.60;32.58;;;2.90;52.60;;;;;;5111336;28;20388;-73
2023/12/03 02:16:25;;;;;;;54.00;33.20;;;2.90;52.30;;;;;;5111275;28;20459;-72
2023/12/03 02:18:51;;;;;;;55.10;33.95;;;2.80;52.90;;;;;;5110966;28;20376;-73
2023/12/03 02:21:16;;;;;;;58.33;34.00;;;2.80;53.40;;;;;;5110803;28;20418;-72
2023/12/03 02:23:42;;;;;;;55.28;33.58;;;2.80;54.20;;;;;;5111369;28;20874;-73
2023/12/03 02:26:07;;;;;;;53.00;33.00;;;2.70;54.80;;;;;;5111021;28;20808;-74
2023/12/03 02:28:33;;;;;;;50.47;32.20;;;2.70;54.20;;;;;;5109924;28;20858;-73
2023/12/03 02:31:02;;;;;;;50.83;32.07;;;2.70;54.30;;;;;;5111028;28;20380;-72
2023/12/03 02:33:27;;;;;;;50.53;31.88;;;2.80;54.10;;;;;;5111361;28;20475;-73
2023/12/03 02:35:53;;;;;;;52.25;32.65;;;2.70;53.90;;;;;;5111313;28;20447;-74
2023/12/03 02:38:19;;;;;;;52.17;32.33;;;2.80;53.50;;;;;;5093472;28;20407;-73
2023/12/03 02:40:44;;;;;;;52.53;32.67;;;2.80;53.50;;;;;;5111541;28;20408;-73
2023/12/03 02:43:10;;;;;;;51.83;31.83;;;2.80;53.30;;;;;;5111287;28;20408;-73
2023/12/03 02:45:36;;;;;;;53.63;31.77;;;2.70;53.80;;;;;;5109626;28;20415;-72
2023/12/03 02:48:01;;;;;;;50.90;29.98;;;2.80;54.20;;;;;;5110730;28;20445;-72
2023/12/03 02:50:27;;;;;;;51.58;31.85;;;2.80;53.70;;;;;;5110774;28;20399;-72
2023/12/03 02:52:52;;;;;;;46.50;29.55;;;2.80;52.50;;;;;;5110946;28;20867;-74
2023/12/03 02:55:18;;;;;;;44.42;28.13;;;2.80;51.40;;;;;;5111199;28;20376;-73
2023/12/03 02:57:43;;;;;;;49.23;29.67;;;2.70;51.70;;;;;;5110824;28;20408;-72
2023/12/03 03:00:10;;;;;;;44.93;28.50;;;2.70;52.50;;;;;;5109789;28;20473;-73
2023/12/03 03:02:37;;;;;;;47.75;28.20;;;2.70;52.40;;;;;;5109885;28;20383;-73
2023/12/03 03:05:03;;;;;;;46.27;29.83;;;2.70;51.10;;;;;;5110622;28;20385;-72
2023/12/03 03:07:29;;;;;;;48.88;29.63;;;2.70;51.70;;;;;;5110606;28;20399;-72
2023/12/03 03:09:54;;;;;;;47.60;29.30;;;2.70;52.50;;;;;;5110611;28;20432;-72
2023/12/03 03:12:20;;;;;;;44.70;28.55;;;2.70;52.40;;;;;;5110766;28;20387;-72
2023/12/03 03:14:46;;;;;;;48.40;30.37;;;2.60;52.60;;;;;;5110538;28;20388;-72
2023/12/03 03:17:11;;;;;;;48.27;29.83;;;2.70;52.20;;;;;;5110360;28;20400;-72
2023/12/03 03:19:37;;;;;;;45.45;28.25;;;2.80;52.30;;;;;;5110614;28;20388;-73
2023/12/03 03:22:03;;;;;;;43.30;27.10;;;2.80;52.30;;;;;;5110342;28;20487;-74
2023/12/03 03:24:28;;;;;;;47.28;29.40;;;2.80;52.10;;;;;;5092381;28;20416;-74
2023/12/03 03:26:54;;;;;;;49.03;29.20;;;2.70;52.80;;;;;;5110700;28;20862;-73
2023/12/03 03:29:19;;;;;;;47.73;30.13;;;2.60;54.60;;;;;;5110658;28;20700;-71
2023/12/03 03:31:45;;;;;;;46.57;28.23;;;2.60;54.50;;;;;;5110344;28;20433;-71
2023/12/03 03:34:10;;;;;;;45.67;28.98;;;2.60;55.00;;;;;;5110528;28;20410;-73
2023/12/03 03:36:36;;;;;;;49.33;30.42;;;2.60;55.10;;;;;;5110423;28;20448;-71
2023/12/03 03:39:02;;;;;;;41.38;27.42;;;2.70;54.50;;;;;;5110303;28;20372;-72
2023/12/03 03:41:28;;;;;;;42.78;27.33;;;2.80;53.50;;;;;;5110619;28;20401;-72
2023/12/03 03:43:53;;;;;;;44.30;27.10;;;2.90;52.50;;;;;;5110432;28;20384;-73
2023/12/03 03:46:19;;;;;;;41.93;26.97;;;2.90;52.40;;;;;;5110534;28;20451;-73
2023/12/03 03:48:44;;;;;;;44.63;26.85;;;2.90;51.50;;;;;;5110173;28;20384;-73
2023/12/03 03:51:10;;;;;;;42.50;25.58;;;2.90;51.30;;;;;;5110222;28;20403;-72
2023/12/03 03:53:35;;;;;;;41.17;25.02;;;2.90;52.20;;;;;;5110446;28;20395;-71
2023/12/03 03:56:11;;;;;;;39.95;25.05;;;3.00;51.10;;;;;;5109931;28;20387;-73
2023/12/03 03:58:37;;;;;;;36.78;23.33;;;2.90;51.00;;;;;;5110216;28;20387;-72
2023/12/03 04:01:07;;;;;;;40.87;24.80;;;2.90;50.90;;;;;;5110121;28;20404;-72
2023/12/03 04:03:33;;;;;;;37.20;23.10;;;2.80;51.10;;;;;;5110324;28;20601;-73
2023/12/03 04:06:05;;;;;;;37.65;24.83;;;2.80;51.40;;;;;;5110117;28;20380;-73
2023/12/03 04:08:31;;;;;;;40.50;25.87;;;2.70;52.80;;;;;;5110198;28;20383;-73
2023/12/03 04:10:57;;;;;;;38.83;24.02;;;2.70;52.60;;;;;;5110252;28;20380;-73
2023/12/03 04:13:24;;;;;;;37.53;24.25;;;2.80;52.00;;;;;;5111955;28;20471;-73
2023/12/03 04:15:49;;;;;;;36.78;23.85;;;2.80;51.50;;;;;;5113938;28;20441;-74
2023/12/03 04:18:15;;;;;;;37.83;24.42;;;2.80;52.00;;;;;;5114072;28;20773;-74
2023/12/03 04:20:40;;;;;;;36.33;23.55;;;2.80;52.40;;;;;;5114087;28;20404;-74
2023/12/03 04:23:06;;;;;;;34.80;22.65;;;2.80;51.80;;;;;;5113888;28;20372;-73
2023/12/03 04:25:32;;;;;;;37.60;23.55;;;2.70;51.60;;;;;;5113666;28;20373;-74
2023/12/03 04:27:57;;;;;;;35.03;22.85;;;2.60;52.00;;;;;;5113487;28;20746;-75
2023/12/03 04:30:23;;;;;;;31.83;21.40;;;2.70;52.00;;;;;;5113596;28;20437;-74
2023/12/03 04:32:48;;;;;;;34.83;21.77;;;2.80;51.20;;;;;;5113234;28;20376;-73
2023/12/03 04:35:14;;;;;;;33.97;22.60;;;2.80;50.50;;;;;;5113569;28;20375;-73
2023/12/03 04:37:40;;;;;;;34.95;22.55;;;2.70;50.90;;;;;;5113572;28;20389;-73
2023/12/03 04:40:06;;;;;;;36.97;23.48;;;2.70;52.10;;;;;;5113531;28;20384;-72
2023/12/03 04:42:32;;;;;;;34.75;22.67;;;2.70;51.90;;;;;;5113390;28;20893;-76
2023/12/03 04:44:57;;;;;;;33.30;22.45;;;2.80;51.80;;;;;;5113240;28;20480;-73
2023/12/03 04:47:23;;;;;;;37.33;23.90;;;2.70;52.20;;;;;;5113428;28;20459;-72
2023/12/03 04:49:49;;;;;;;34.73;22.27;;;2.60;52.70;;;;;;5113230;28;20380;-72
2023/12/03 04:52:14;;;;;;;34.40;22.47;;;2.60;51.80;;;;;;5113506;28;20432;-73
2023/12/03 04:54:40;;;;;;;34.53;22.00;;;2.60;52.40;;;;;;5113182;28;20415;-73
2023/12/03 04:57:05;;;;;;;33.90;21.48;;;2.60;52.30;;;;;;5112611;28;20400;-74
2023/12/03 04:59:31;;;;;;;34.53;21.70;;;2.60;52.00;;;;;;5112973;28;20381;-72
2023/12/03 05:01:56;;;;;;;32.65;21.60;;;2.60;52.30;;;;;;5112705;28;20428;-72
2023/12/03 05:04:25;;;;;;;33.60;21.38;;;2.60;53.10;;;;;;5112841;28;20365;-73
2023/12/03 05:06:50;;;;;;;34.78;21.95;;;2.60;52.60;;;;;;5112711;28;20469;-73
2023/12/03 05:09:16;;;;;;;34.35;21.52;;;2.60;51.40;;;;;;5112691;28;20449;-73
2023/12/03 05:11:42;;;;;;;33.47;21.93;;;2.70;50.90;;;;;;5113309;28;20423;-73
2023/12/03 05:14:08;;;;;;;33.60;21.30;;;2.60;51.30;;;;;;5111389;28;20754;-72
2023/12/03 05:16:34;;;;;;;31.80;21.92;;;2.60;51.90;;;;;;5111296;28;20388;-73
2023/12/03 05:18:59;;;;;;;33.80;22.17;;;2.50;52.10;;;;;;5112727;28;20463;-73
2023/12/03 05:21:25;;;;;;;34.27;21.30;;;2.60;52.70;;;;;;5112475;28;20403;-73
2023/12/03 05:23:50;;;;;;;33.97;21.97;;;2.70;51.80;;;;;;5112484;28;20372;-73
2023/12/03 05:26:16;;;;;;;35.33;22.00;;;2.70;51.60;;;;;;5111828;28;20376;-73
2023/12/03 05:28:42;;;;;;;30.43;20.33;;;2.70;51.90;;;;;;5112561;28;20408;-73
2023/12/03 05:31:07;;;;;;;30.17;20.30;;;2.70;51.30;;;;;;5094577;28;20461;-73
2023/12/03 05:33:33;;;;;;;34.03;20.73;;;2.70;51.40;;;;;;5113641;28;20447;-73
2023/12/03 05:35:58;;;;;;;35.80;22.17;;;2.70;51.50;;;;;;5116133;28;20775;-73
2023/12/03 05:38:24;;;;;;;34.00;21.97;;;2.60;52.90;;;;;;5115918;28;20385;-73
2023/12/03 05:40:49;;;;;;;30.93;20.57;;;2.70;53.50;;;;;;5112225;28;20396;-74
2023/12/03 05:43:15;;;;;;;32.57;20.40;;;2.70;52.20;;;;;;5111636;28;20381;-75
2023/12/03 05:45:41;;;;;;;33.25;20.75;;;2.70;52.30;;;;;;5113456;28;20387;-75
2023/12/03 05:48:06;;;;;;;32.33;20.95;;;2.70;52.00;;;;;;5096389;28;20406;-74
2023/12/03 05:50:33;;;;;;;32.10;20.67;;;2.70;52.40;;;;;;5114718;28;20485;-73
2023/12/03 05:52:58;;;;;;;32.15;20.75;;;2.70;51.80;;;;;;5095916;28;20700;-74
2023/12/03 05:55:24;;;;;;;29.52;19.40;;;2.80;52.10;;;;;;5113565;28;20387;-75
2023/12/03 05:57:50;;;;;;;30.80;20.10;;;2.70;51.90;;;;;;5090158;22;20431;-71
2023/12/03 06:00:16;;;;;;;31.00;19.27;;;2.80;51.60;;;;;;5071065;28;20437;-71
2023/12/03 06:02:42;;;;;;;32.53;19.55;;;2.90;49.70;;;;;;5070989;28;20927;-71
2023/12/03 06:05:08;;;;;;;29.23;19.30;;;2.80;50.20;;;;;;5071034;28;20383;-71
2023/12/03 06:07:34;;;;;;;30.60;19.77;;;2.60;51.20;;;;;;5064772;28;20391;-71
2023/12/03 06:09:59;;;;;;;28.60;18.88;;;2.70;51.30;;;;;;5071135;28;20378;-71
2023/12/03 06:12:25;;;;;;;30.48;19.38;;;2.70;51.50;;;;;;5071029;28;20384;-71
2023/12/03 06:14:51;;;;;;;32.27;19.33;;;2.60;51.90;;;;;;5071042;28;20475;-70
2023/12/03 06:17:16;;;;;;;27.30;18.57;;;2.60;52.20;;;;;;5070655;28;20928;-70
2023/12/03 06:19:42;;;;;;;30.83;19.27;;;2.60;51.90;;;;;;5070892;28;20777;-71
2023/12/03 06:22:07;;;;;;;32.07;19.87;;;2.60;51.80;;;;;;5070460;28;20862;-71
2023/12/03 06:24:33;;;;;;;29.83;20.03;;;2.60;52.40;;;;;;5070734;28;20850;-71
2023/12/03 06:26:58;;;;;;;29.07;19.07;;;2.50;52.70;;;;;;5070493;28;20384;-71
2023/12/03 06:29:24;;;;;;;26.97;18.50;;;2.60;53.00;;;;;;5070574;28;20392;-71
2023/12/03 06:31:49;;;;;;;29.07;19.40;;;2.70;52.40;;;;;;5070831;28;20383;-70
2023/12/03 06:34:16;;;;;;;26.50;17.77;;;2.70;52.30;;;;;;5070519;28;20402;-69
2023/12/03 06:36:41;;;;;;;28.73;18.13;;;2.70;52.50;;;;;;5070620;28;20379;-70
2023/12/03 06:39:07;;;;;;;29.73;18.95;;;2.70;52.90;;;;;;5070496;28;20388;-71
2023/12/03 06:41:33;;;;;;;27.90;18.73;;;2.70;52.70;;;;;;5070626;28;20395;-70
2023/12/03 06:43:59;;;;;;;25.83;17.60;;;2.70;53.00;;;;;;5071364;28;20384;-70
2023/12/03 06:46:24;;;;;;;27.65;18.10;;;2.80;51.70;;;;;;5070661;28;20425;-70
2023/12/03 06:48:50;;;;;;;24.83;17.17;;;2.70;51.90;;;;;;5070540;28;20402;-71
2023/12/03 06:51:15;;;;;;;26.92;18.38;;;2.80;51.80;;;;;;5070125;28;20844;-71
2023/12/03 06:53:41;;;;;;;28.15;18.08;;;2.70;51.90;;;;;;5070281;28;20466;-70
2023/12/03 06:56:10;;;;;;;26.75;18.20;;;2.70;52.10;;;;;;5073717;28;20862;-71
2023/12/03 06:58:35;;;;;;;28.42;18.02;;;2.50;52.70;;;;;;5109865;28;20439;-71
2023/12/03 07:01:01;;;;;;;24.53;17.17;;;2.50;52.70;;;;;;5109643;28;20400;-71
2023/12/03 07:03:26;;;;;;;26.70;17.83;;;2.30;52.30;;;;;;5109840;28;20381;-71
2023/12/03 07:05:52;;;;;;;27.90;18.30;;;2.30;53.50;;;;;;5109738;28;20372;-70
2023/12/03 07:08:17;;;;;;;24.50;16.58;;;2.20;53.90;;;;;;5109985;28;20483;-71
2023/12/03 07:10:43;;;;;;;24.00;16.55;;;2.10;52.60;;;;;;5110051;28;20788;-70
2023/12/03 07:13:08;;;;;;;23.23;16.80;;;2.00;54.40;;;;;;5109688;28;20767;-71
2023/12/03 07:15:34;;;;;;;24.13;16.75;;;2.00;53.80;;;;;;5109934;28;20398;-71
2023/12/03 07:17:59;;;;;;;23.20;16.17;;;1.90;53.00;;;;;;5110397;28;20380;-71
2023/12/03 07:20:25;;;;;;;24.93;16.50;;;2.10;54.10;;;;;;5109609;28;20377;-71
2023/12/03 07:22:51;;;;;;;23.90;16.48;;;2.20;53.30;;;;;;5109864;28;20657;-71
2023/12/03 07:25:17;;;;;;;26.27;17.08;;;2.30;53.40;;;;;;5109850;28;20521;-71
2023/12/03 07:27:42;;;;;;;24.00;16.80;;;2.30;53.50;;;;;;5109418;28;20411;-71
2023/12/03 07:30:08;;;;;;;22.30;16.07;;;2.30;53.40;;;;;;5109526;28;20395;-71
2023/12/03 07:32:34;;;;;;;23.02;15.77;;;2.40;52.50;;;;;;5109221;28;20380;-71
2023/12/03 07:35:00;;;;;;;23.07;16.03;;;2.40;51.10;;;;;;5109357;28;20466;-71
2023/12/03 07:37:25;;;;;;;25.40;16.50;;;2.50;50.60;;;;;;5109561;28;20746;-71
2023/12/03 07:39:51;;;;;;;27.10;17.45;;;2.60;50.20;;;;;;5109577;28;20384;-71
2023/12/03 07:42:17;;;;;;;27.02;17.92;;;2.60;51.30;;;;;;5109311;28;20400;-71
2023/12/03 07:44:42;;;;;;;24.07;17.10;;;2.60;51.50;;;;;;5109645;28;20445;-71
2023/12/03 07:47:08;;;;;;;26.70;17.60;;;2.70;54.70;;;;;;5109267;28;20380;-71
2023/12/03 07:49:34;;;;;;;27.80;18.35;;;2.60;52.40;;;;;;5112895;28;20399;-71
2023/12/03 07:51:59;;;;;;;25.90;18.30;;;2.50;51.30;;;;;;5112918;28;20380;-71
2023/12/03 07:54:25;;;;;;;32.28;18.25;;;2.30;51.70;;;;;;5113099;28;20384;-71
2023/12/03 07:56:50;;;;;;;27.40;18.20;;;2.30;51.30;;;;;;5049501;28;1782209;-71
2023/12/03 07:59:16;;;;;;;31.27;18.60;;;2.20;50.60;;;;;;5114197;28;20456;-71
2023/12/03 08:01:41;;;;;;;26.07;17.80;;;2.30;52.10;;;;;;5113914;28;20491;-71
2023/12/03 08:04:07;;;;;;;26.73;18.13;;;2.30;51.30;;;;;;5113987;28;20380;-71
2023/12/03 08:06:33;;;;;;;26.38;18.33;;;2.30;50.90;;;;;;5113962;28;20421;-71
2023/12/03 08:08:59;;;;;;;29.50;18.10;;;2.60;51.30;;;;;;5114112;28;20380;-71
2023/12/03 08:11:25;;;;;;;26.55;17.95;;;2.50;49.30;;;;;;5113715;28;20400;-71
2023/12/03 08:13:51;;;;;;;37.27;19.90;;;2.40;48.60;;;;;;5114041;28;20755;-71
2023/12/03 08:16:16;;;;;;;27.00;17.80;;;2.40;48.70;;;;;;5114568;28;20421;-71
2023/12/03 08:18:42;;;;;;;27.83;18.80;;;2.30;48.90;;;;;;5113969;28;20466;-71
2023/12/03 08:21:09;;;;;;;32.75;19.17;;;2.30;49.80;;;;;;5112310;28;20397;-71
2023/12/03 08:23:35;;;;;;;27.80;18.70;;;2.20;49.80;;;;;;5113820;28;20380;-71
2023/12/03 08:26:03;;;;;;;29.00;18.73;;;2.20;49.70;;;;;;5113580;28;20750;-71
2023/12/03 08:28:28;;;;;;;27.75;18.42;;;2.20;50.10;;;;;;5113473;28;20376;-71
2023/12/03 08:30:54;;;;;;;29.33;18.30;;;2.10;49.70;;;;;;5113378;28;20889;-71
2023/12/03 08:33:19;;;;;;;28.17;18.63;;;2.10;51.70;;;;;;5113573;28;20384;-71
2023/12/03 08:35:45;;;;;;;27.98;18.77;;;2.10;52.00;;;;;;5113516;28;20874;-71
2023/12/03 08:38:11;;;;;;;26.15;17.45;;;2.10;49.90;;;;;;5113547;28;20478;-71
2023/12/03 08:40:36;;;;;;;26.13;18.03;;;2.00;49.80;;;;;;5113534;28;20548;-72
2023/12/03 08:43:02;;;;;;;28.03;19.10;;;2.10;51.80;;;;;;5113430;28;20889;-71
2023/12/03 08:45:29;;;;;;;29.80;19.10;;;2.10;51.20;;;;;;5113835;28;20897;-71
2023/12/03 08:47:55;;;;;;;25.95;18.13;;;2.10;52.00;;;;;;5112175;28;20499;-71
2023/12/03 08:50:26;;;;;;;27.58;17.98;;;2.10;51.50;;;;;;5113351;28;20468;-71
2023/12/03 08:52:52;;;;;;;30.27;19.58;;;2.20;49.80;;;;;;5113316;28;20477;-71
2023/12/03 08:55:18;;;;;;;26.63;17.75;;;2.30;50.40;;;;;;5113227;28;20905;-71
2023/12/03 08:57:44;;;;;;;29.30;18.80;;;2.40;48.40;;;;;;5113364;28;20513;-72
2023/12/03 09:00:12;;;;;;;27.85;18.15;;;2.40;47.80;;;;;;5110817;28;20388;-71
2023/12/03 09:02:43;;;;;;;28.80;17.77;;;2.40;48.50;;;;;;5113679;28;20954;-71
2023/12/03 09:05:09;;;;;;;26.20;17.55;;;2.60;49.50;;;;;;5114005;28;20785;-71
2023/12/03 09:07:35;;;;;;;26.48;17.85;;;2.50;47.30;;;;;;5113706;28;20795;-71
2023/12/03 09:10:01;;;;;;;29.27;19.30;;;2.60;47.00;;;;;;5115724;28;20544;-71
2023/12/03 09:12:26;;;;;;;26.90;17.20;;;2.60;46.30;;;;;;5120016;28;20384;-71
2023/12/03 09:14:52;;;;;;;26.25;16.83;;;2.60;47.20;;;;;;5120463;28;20381;-71
2023/12/03 09:17:17;;;;;;;26.98;17.88;;;3.30;46.20;;;;;;5119329;28;20385;-71
2023/12/03 09:19:43;;;;;;;27.60;17.55;;;3.50;41.10;;;;;;5114123;28;20505;-71
2023/12/03 09:22:08;;;;;;;28.20;19.08;;;3.40;41.70;;;;;;5112767;28;20453;-71
2023/12/03 09:24:34;;;;;;;33.63;20.20;;;3.20;42.50;;;;;;5113146;28;20385;-71
2023/12/03 09:26:59;;;;;;;27.50;18.47;;;3.10;44.10;;;;;;5112512;28;20383;-71
2023/12/03 09:29:25;;;;;;;30.73;18.60;;;3.00;44.30;;;;;;5112907;28;20380;-71
2023/12/03 09:31:51;;;;;;;29.07;18.47;;;2.90;43.50;;;;;;5113304;28;20555;-71
2023/12/03 09:34:16;;;;;;;30.70;19.33;;;3.00;43.50;;;;;;5114630;28;20388;-71
2023/12/03 09:36:42;;;;;;;31.60;18.83;;;3.00;44.40;;;;;;5119897;28;20380;-71
2023/12/03 09:39:07;;;;;;;30.97;19.63;;;3.10;44.60;;;;;;5120975;28;20398;-71
2023/12/03 09:41:39;;;;;;;30.75;19.27;;;3.10;42.90;;;;;;5121205;28;20487;-71
2023/12/03 09:44:14;;;;;;;31.13;20.43;;;3.20;41.60;;;;;;5120040;28;20372;-71
2023/12/03 09:46:42;;;;;;;33.78;20.77;;;3.20;41.40;;;;;;5115883;28;20738;-71
2023/12/03 09:49:10;;;;;;;31.65;18.88;;;3.30;41.60;;;;;;5112567;28;20470;-71
2023/12/03 09:51:40;;;;;;;30.92;18.95;;;3.40;39.90;;;;;;5112375;28;20395;-71
2023/12/03 09:54:08;;;;;;;30.90;20.00;;;3.60;41.70;;;;;;5112332;28;20501;-71
2023/12/03 09:56:35;;;;;;;31.42;19.90;;;3.70;39.80;;;;;;5112139;28;20426;-71
2023/12/03 09:59:01;;;;;;;29.27;18.38;;;3.70;38.00;;;;;;5094006;28;20388;-71
2023/12/03 10:01:28;;;;;;;28.25;17.85;;;3.70;37.80;;;;;;5111750;28;20405;-71
2023/12/03 10:03:54;;;;;;;33.97;19.25;;;3.80;38.30;;;;;;5112214;28;20376;-73
2023/12/03 10:06:23;;;;;;;32.05;19.40;;;3.80;37.60;;;;;;5111930;28;20924;-74
2023/12/03 10:08:49;;;;;;;36.55;19.80;;;3.90;37.70;;;;;;5111890;28;20369;-71
2023/12/03 10:11:21;;;;;;;32.67;19.33;;;4.00;37.90;;;;;;5111569;28;20676;-72
2023/12/03 10:13:47;;;;;;;28.52;17.88;;;4.00;36.50;;;;;;5112040;28;20427;-71
2023/12/03 10:16:14;;;;;;;33.65;19.10;;;4.00;36.90;;;;;;5111721;28;20850;-72
2023/12/03 10:18:39;;;;;;;32.20;19.15;;;4.00;37.50;;;;;;5110766;28;20410;-73
2023/12/03 10:21:06;;;;;;;32.27;19.13;;;4.00;38.20;;;;;;5111753;28;20405;-72
2023/12/03 10:23:35;;;;;;;32.15;19.00;;;4.00;37.70;;;;;;5111346;28;20376;-72
2023/12/03 10:26:12;;;;;;;31.10;18.60;;;4.00;37.20;;;;;;5111508;28;20740;-71
2023/12/03 10:28:39;;;;;;;34.92;19.10;;;4.00;36.90;;;;;;5111332;28;20380;-72
2023/12/03 10:31:15;;;;;;;31.90;18.00;;;4.10;37.90;;;;;;5111628;28;20373;-71
2023/12/03 10:33:44;;;;;;;29.30;17.00;;;4.10;35.80;;;;;;5111498;28;20384;-71
2023/12/03 10:36:11;;;;;;;31.50;17.02;;;4.10;35.80;;;;;;5111124;28;20395;-71
2023/12/03 10:38:37;;;;;;;28.23;17.23;;;4.10;35.90;;;;;;5110937;28;20731;-71
2023/12/03 10:41:07;;;;;;;30.02;17.52;;;4.10;36.70;;;;;;5111110;28;20456;-71
2023/12/03 10:43:39;;;;;;;28.63;17.27;;;4.10;36.50;;;;;;5111125;28;20477;-71
2023/12/03 10:46:08;;;;;;;29.50;18.13;;;4.20;36.60;;;;;;5111120;28;20381;-71
2023/12/03 10:48:35;;;;;;;29.45;17.48;;;4.20;36.80;;;;;;5111188;28;20381;-71
2023/12/03 10:51:06;;;;;;;29.50;17.35;;;4.20;35.20;;;;;;5110882;28;20781;-71
2023/12/03 10:53:33;;;;;;;30.85;17.23;;;4.20;36.30;;;;;;5111241;28;20377;-71
2023/12/03 10:56:05;;;;;;;30.38;17.08;;;4.30;35.60;;;;;;5110308;28;20471;-71
2023/12/03 10:58:32;;;;;;;28.30;17.65;;;4.40;36.50;;;;;;5110941;28;20388;-72
2023/12/03 11:01:11;;;;;;;35.13;18.98;;;4.50;36.80;;;;;;5110287;28;20451;-72
2023/12/03 11:03:45;;;;;;;32.17;18.50;;;4.70;35.60;;;;;;5110574;28;20371;-71
2023/12/03 11:06:14;;;;;;;32.88;18.70;;;4.80;36.10;;;;;;5110600;28;20395;-74
2023/12/03 11:08:40;;;;;;;34.85;20.40;;;5.00;34.70;;;;;;5109804;28;20866;-72
2023/12/03 11:11:08;;;;;;;30.35;18.30;;;5.00;34.20;;;;;;5109228;28;20388;-75
2023/12/03 11:13:35;;;;;;;33.00;17.80;;;5.20;36.80;;;;;;5108059;28;20463;-73
2023/12/03 11:16:02;;;;;;;36.00;18.90;;;5.20;34.40;;;;;;5104725;28;20953;-72
2023/12/03 11:18:30;;;;;;;34.50;19.00;;;5.10;34.60;;;;;;5110561;28;20434;-72
2023/12/03 11:21:13;;;;;;;33.20;20.13;;;5.10;35.80;;;;;;5110609;28;20851;-73
2023/12/03 11:24:16;;;;;;;32.20;19.00;;;5.00;34.10;;;;;;5111700;28;20393;-73
2023/12/03 11:26:42;;;;;;;30.25;18.02;;;4.90;34.10;;;;;;5115208;28;20395;-73
2023/12/03 11:29:08;;;;;;;31.23;18.17;;;4.70;34.60;;;;;;5114911;28;20400;-73
2023/12/03 11:31:34;;;;;;;31.70;17.25;;;4.70;34.80;;;;;;5114390;28;20438;-72
2023/12/03 11:34:00;;;;;;;28.30;17.30;;;4.60;32.80;;;;;;5114789;28;20396;-72
2023/12/03 11:36:45;;;;;;;32.10;19.67;;;4.50;33.00;;;;;;5114576;28;20387;-72
2023/12/03 11:39:10;;;;;;;29.55;18.13;;;4.50;33.00;;;;;;5104702;28;20902;-71
2023/12/03 11:41:41;;;;;;;30.73;18.33;;;4.40;33.40;;;;;;5096461;28;20410;-71
2023/12/03 11:44:17;;;;;;;29.48;17.50;;;4.40;34.20;;;;;;5115032;28;20380;-72
2023/12/03 11:46:50;;;;;;;32.15;18.48;;;4.50;35.90;;;;;;5113859;28;20375;-73
2023/12/03 11:49:17;;;;;;;28.50;17.17;;;4.60;35.80;;;;;;5114382;28;20410;-72
2023/12/03 11:51:46;;;;;;;27.58;17.17;;;4.50;34.90;;;;;;5111319;28;20538;-73
2023/12/03 11:54:20;;;;;;;32.38;18.02;;;4.60;35.10;;;;;;5101113;28;20770;-72
2023/12/03 11:56:45;;;;;;;27.30;16.98;;;4.60;35.90;;;;;;5108828;28;20420;-71
2023/12/03 11:59:14;;;;;;;28.73;17.85;;;4.50;34.40;;;;;;5109013;28;20445;-72
2023/12/03 12:01:39;;;;;;;30.88;17.60;;;4.50;34.40;;;;;;5110466;28;20461;-71
2023/12/03 12:04:05;;;;;;;32.25;18.30;;;4.40;35.30;;;;;;5111691;28;20483;-71
2023/12/03 12:06:32;;;;;;;30.83;18.43;;;4.40;34.80;;;;;;5109643;28;20392;-71
2023/12/03 12:08:58;;;;;;;31.80;19.48;;;4.30;35.70;;;;;;5083877;28;20498;-71
2023/12/03 12:11:24;;;;;;;32.03;19.00;;;4.20;34.90;;;;;;5111599;28;20384;-71
2023/12/03 12:13:50;;;;;;;33.58;18.95;;;4.20;36.20;;;;;;5111217;28;20538;-71
2023/12/03 12:16:16;;;;;;;36.67;21.30;;;4.10;36.50;;;;;;5096830;28;20994;-71
2023/12/03 12:18:41;;;;;;;33.60;20.00;;;4.10;39.40;;;;;;5111714;28;20372;-73
2023/12/03 12:21:11;;;;;;;35.93;20.60;;;4.10;39.20;;;;;;5112910;28;20492;-72
2023/12/03 12:23:36;;;;;;;34.85;21.58;;;4.00;38.10;;;;;;5112592;28;20435;-70
2023/12/03 12:26:02;;;;;;;37.67;21.15;;;4.00;37.10;;;;;;5110992;28;20519;-72
2023/12/03 12:28:28;;;;;;;35.08;21.48;;;3.80;38.00;;;;;;5111099;28;20427;-72
2023/12/03 12:30:55;;;;;;;37.47;22.50;;;3.60;38.20;;;;;;5110673;28;20429;-71